Time;durP1;ratioP1;P1;durP2;ratioP2;P2;SDS_P1;SDS_P2;PMS_P1;PMS_P2;Temp;Humidity;BMP_temperature;BMP_pressure;BME280_temperature;BME280_humidity;BME280_pressure;Samples;Min_cycle;Max_cycle;Signal;HPM_P1;HPM_P2
2022/06/10 00:02:10;;;;;;;19.50;11.18;;;;;;;;;;4879798;29;20423;-62
2022/06/10 00:04:35;;;;;;;20.90;11.75;;;;;;;;;;4879192;29;20041;-62
2022/06/10 00:07:01;;;;;;;17.35;10.68;;;;;;;;;;4877813;29;20033;-63
2022/06/10 00:09:26;;;;;;;17.35;11.45;;;;;;;;;;4879337;29;20045;-63
2022/06/10 00:11:52;;;;;;;19.02;12.07;;;;;;;;;;4876386;29;20040;-63
2022/06/10 00:14:17;;;;;;;23.98;14.30;;;;;;;;;;4880351;29;20029;-63
2022/06/10 00:16:43;;;;;;;19.10;13.35;;;;;;;;;;4861551;29;20037;-62
2022/06/10 00:19:08;;;;;;;22.77;13.15;;;;;;;;;;4880883;29;20379;-63
2022/06/10 00:21:33;;;;;;;19.88;13.43;;;;;;;;;;4874499;29;20043;-64
2022/06/10 00:23:59;;;;;;;17.38;11.45;;;;;;;;;;4878330;29;20044;-63
2022/06/10 00:26:24;;;;;;;19.17;12.20;;;;;;;;;;4879942;29;20141;-64
2022/06/10 00:28:50;;;;;;;16.80;11.18;;;;;;;;;;4879238;29;20044;-64
2022/06/10 00:31:16;;;;;;;19.60;12.13;;;;;;;;;;4878791;29;20059;-62
2022/06/10 00:33:42;;;;;;;17.58;11.05;;;;;;;;;;4877216;29;20043;-63
2022/06/10 00:36:09;;;;;;;17.95;12.20;;;;;;;;;;4875274;29;20029;-64
2022/06/10 00:38:35;;;;;;;23.05;12.65;;;;;;;;;;4879095;29;20501;-63
2022/06/10 00:41:02;;;;;;;23.42;12.38;;;;;;;;;;4875462;29;20033;-64
2022/06/10 00:43:31;;;;;;;19.50;11.93;;;;;;;;;;4878384;29;20064;-63
2022/06/10 00:45:56;;;;;;;16.92;11.25;;;;;;;;;;4875899;29;20029;-63
2022/06/10 00:48:37;;;;;;;18.23;11.30;;;;;;;;;;4879229;29;20165;-63
2022/06/10 00:51:15;;;;;;;15.25;11.45;;;;;;;;;;4868389;29;21876;-64
2022/06/10 00:53:41;;;;;;;20.45;11.35;;;;;;;;;;4878481;29;20040;-64
2022/06/10 00:56:11;;;;;;;19.33;11.35;;;;;;;;;;4878419;29;20043;-63
2022/06/10 00:58:52;;;;;;;18.95;11.38;;;;;;;;;;4879470;29;20158;-63
2022/06/10 01:01:19;;;;;;;;;;;;;;;;;;4878772;29;20037;-62
2022/06/10 01:03:44;;;;;;;16.75;10.73;;;;;;;;;;4879006;29;19915;-63
2022/06/10 01:06:10;;;;;;;20.10;10.68;;;;;;;;;;4875806;29;20360;-62
2022/06/10 01:08:36;;;;;;;18.55;10.82;;;;;;;;;;4889643;29;20116;-63
2022/06/10 01:11:20;;;;;;;20.98;11.52;;;;;;;;;;4876398;29;20040;-62
2022/06/10 01:14:11;;;;;;;18.23;11.57;;;;;;;;;;4877416;29;20033;-61
2022/06/10 01:16:42;;;;;;;;;;;;;;;;;;4872606;29;20049;-62
2022/06/10 01:19:20;;;;;;;;;;;;;;;;;;4868216;29;20412;-62
2022/06/10 01:21:59;;;;;;;17.10;10.13;;;;;;;;;;4871033;29;19979;-63
2022/06/10 01:24:24;;;;;;;19.23;10.65;;;;;;;;;;4877751;29;20036;-63
2022/06/10 01:30:27;;;;;;;16.90;10.80;;;;;;;;;;4877008;29;20040;-62
2022/06/10 01:33:12;;;;;;;16.48;10.38;;;;;;;;;;4876639;29;20478;-63
2022/06/10 01:36:00;;;;;;;18.90;11.50;;;;;;;;;;4861155;29;20045;-63
2022/06/10 01:38:38;;;;;;;15.30;10.70;;;;;;;;;;4873472;29;20059;-63
2022/06/10 01:41:31;;;;;;;16.52;11.27;;;;;;;;;;4875260;29;20089;-62
2022/06/10 01:44:31;;;;;;;17.15;11.00;;;;;;;;;;4867430;29;20037;-62
2022/06/10 01:47:00;;;;;;;17.38;10.15;;;;;;;;;;4872677;29;20045;-62
2022/06/10 01:50:08;;;;;;;19.92;10.88;;;;;;;;;;4861293;29;20033;-63
2022/06/10 01:52:45;;;;;;;16.98;12.30;;;;;;;;;;4877399;29;20032;-63
2022/06/10 01:55:23;;;;;;;21.45;13.43;;;;;;;;;;4881379;29;20072;-62
2022/06/10 01:58:00;;;;;;;18.45;12.52;;;;;;;;;;4880052;29;20047;-63
2022/06/10 02:00:28;;;;;;;16.88;11.85;;;;;;;;;;4876703;29;20482;-63
2022/06/10 02:03:03;;;;;;;23.30;13.75;;;;;;;;;;4877204;29;20456;-63
2022/06/10 02:05:35;;;;;;;17.77;12.25;;;;;;;;;;4877615;29;20486;-63
2022/06/10 02:08:14;;;;;;;19.23;11.98;;;;;;;;;;4876224;29;20021;-63
2022/06/10 02:10:54;;;;;;;19.65;11.93;;;;;;;;;;4877982;29;20422;-63
2022/06/10 02:13:26;;;;;;;18.10;11.57;;;;;;;;;;4876003;29;20043;-63
2022/06/10 02:15:56;;;;;;;19.92;12.52;;;;;;;;;;4876834;29;20036;-64
2022/06/10 02:18:30;;;;;;;24.15;12.32;;;;;;;;;;4876855;29;20113;-63
2022/06/10 02:21:10;;;;;;;22.33;13.25;;;;;;;;;;4875210;29;20033;-62
2022/06/10 02:23:41;;;;;;;21.98;12.55;;;;;;;;;;4876399;29;20478;-63
2022/06/10 02:26:07;;;;;;;18.15;12.40;;;;;;;;;;4877390;29;20057;-63
2022/06/10 02:28:41;;;;;;;18.55;11.85;;;;;;;;;;4876153;29;20120;-63
2022/06/10 02:31:13;;;;;;;21.20;12.63;;;;;;;;;;4877571;29;20029;-63
2022/06/10 02:33:39;;;;;;;18.40;11.90;;;;;;;;;;4875775;29;20069;-62
2022/06/10 02:36:04;;;;;;;22.30;13.57;;;;;;;;;;4875657;29;20029;-63
2022/06/10 02:38:52;;;;;;;20.77;12.77;;;;;;;;;;4877326;29;20037;-63
2022/06/10 02:41:28;;;;;;;23.27;12.82;;;;;;;;;;4876388;29;20037;-63
2022/06/10 02:44:15;;;;;;;19.98;11.85;;;;;;;;;;4877460;29;20044;-63
2022/06/10 02:46:48;;;;;;;18.90;11.88;;;;;;;;;;4869149;29;20036;-62
2022/06/10 02:49:17;;;;;;;19.58;11.90;;;;;;;;;;4877103;29;20041;-63
2022/06/10 02:51:43;;;;;;;19.05;11.10;;;;;;;;;;4876147;29;20044;-63
2022/06/10 02:54:15;;;;;;;15.80;10.63;;;;;;;;;;4877584;29;20060;-63
2022/06/10 02:56:41;;;;;;;18.08;11.90;;;;;;;;;;4875305;29;20112;-63
2022/06/10 03:02:12;;;;;;;20.67;12.10;;;;;;;;;;4872805;29;20104;-63
2022/06/10 03:05:00;;;;;;;18.23;11.95;;;;;;;;;;4864411;29;20044;-63
2022/06/10 03:08:01;;;;;;;20.88;12.70;;;;;;;;;;4874254;29;20037;-64
2022/06/10 03:11:01;;;;;;;16.42;11.48;;;;;;;;;;4768322;30;20039;-62
2022/06/10 03:13:39;;;;;;;27.27;13.98;;;;;;;;;;4876570;29;20443;-62
2022/06/10 03:16:09;;;;;;;22.65;13.20;;;;;;;;;;4873934;29;20611;-62
2022/06/10 03:18:51;;;;;;;17.45;12.38;;;;;;;;;;4877939;29;20069;-63
2022/06/10 03:21:41;;;;;;;27.75;13.80;;;;;;;;;;4873671;29;20045;-63
2022/06/10 03:24:38;;;;;;;19.63;11.50;;;;;;;;;;4862134;29;20346;-63
2022/06/10 03:27:10;;;;;;;23.35;12.98;;;;;;;;;;4877001;29;20137;-63
2022/06/10 03:29:55;;;;;;;24.05;12.93;;;;;;;;;;4879880;29;20132;-63
2022/06/10 03:32:34;;;;;;;27.77;14.57;;;;;;;;;;4862688;29;20037;-63
2022/06/10 03:35:19;;;;;;;23.58;13.73;;;;;;;;;;4872252;29;20028;-63
2022/06/10 03:37:46;;;;;;;21.10;12.82;;;;;;;;;;4878272;29;20101;-63
2022/06/10 03:40:22;;;;;;;17.67;12.02;;;;;;;;;;4876712;29;20044;-63
2022/06/10 03:42:53;;;;;;;17.38;12.38;;;;;;;;;;4880619;29;20120;-62
2022/06/10 03:45:24;;;;;;;20.33;11.93;;;;;;;;;;4879724;29;20029;-63
2022/06/10 03:47:49;;;;;;;21.25;12.52;;;;;;;;;;4880398;29;20045;-62
2022/06/10 03:50:18;;;;;;;20.10;12.48;;;;;;;;;;4869649;29;20486;-63
2022/06/10 03:52:45;;;;;;;20.48;11.93;;;;;;;;;;4878445;29;20040;-63
2022/06/10 03:55:16;;;;;;;23.05;13.35;;;;;;;;;;4858916;29;20045;-63
2022/06/10 03:57:43;;;;;;;22.13;13.68;;;;;;;;;;4877826;29;20100;-63
2022/06/10 04:00:14;;;;;;;23.92;14.65;;;;;;;;;;4866654;29;20037;-62
2022/06/10 04:02:40;;;;;;;20.42;13.40;;;;;;;;;;4855888;29;20045;-62
2022/06/10 04:05:08;;;;;;;22.63;13.93;;;;;;;;;;4880041;29;20097;-64
2022/06/10 04:07:34;;;;;;;23.58;13.77;;;;;;;;;;4878816;29;20467;-63
2022/06/10 04:09:59;;;;;;;20.80;13.30;;;;;;;;;;4879707;29;20044;-62
2022/06/10 04:12:26;;;;;;;17.73;12.80;;;;;;;;;;4879099;29;20033;-63
2022/06/10 04:14:52;;;;;;;20.25;12.88;;;;;;;;;;4879961;29;20455;-64
2022/06/10 04:17:18;;;;;;;24.08;12.70;;;;;;;;;;4879545;29;20478;-63
2022/06/10 04:19:43;;;;;;;19.30;11.80;;;;;;;;;;4880816;29;20029;-63
2022/06/10 04:22:08;;;;;;;20.33;12.38;;;;;;;;;;4876800;29;20702;-64
2022/06/10 04:24:34;;;;;;;21.00;12.20;;;;;;;;;;4879129;29;20119;-63
2022/06/10 04:27:00;;;;;;;19.15;11.60;;;;;;;;;;4878243;29;20534;-64
2022/06/10 04:29:25;;;;;;;21.98;12.40;;;;;;;;;;4878053;29;20498;-63
2022/06/10 04:31:50;;;;;;;20.75;11.73;;;;;;;;;;4878566;29;20474;-63
2022/06/10 04:34:16;;;;;;;20.55;10.75;;;;;;;;;;4876740;29;20525;-63
2022/06/10 04:36:42;;;;;;;20.88;11.00;;;;;;;;;;4879483;29;20045;-63
2022/06/10 04:39:08;;;;;;;19.60;10.50;;;;;;;;;;4877603;29;20036;-63
2022/06/10 04:41:34;;;;;;;16.15;10.05;;;;;;;;;;4878265;29;20033;-63
2022/06/10 04:44:00;;;;;;;15.98;10.05;;;;;;;;;;4878483;29;20385;-63
2022/06/10 04:46:41;;;;;;;17.52;9.85;;;;;;;;;;4880070;29;20598;-63
2022/06/10 04:49:07;;;;;;;16.58;9.57;;;;;;;;;;4878404;29;20041;-63
2022/06/10 04:51:34;;;;;;;13.95;9.68;;;;;;;;;;4878826;29;20043;-63
2022/06/10 04:53:59;;;;;;;19.33;9.27;;;;;;;;;;4878305;29;20029;-63
2022/06/10 04:56:25;;;;;;;15.52;9.13;;;;;;;;;;4878834;29;20037;-62
2022/06/10 04:58:50;;;;;;;15.15;9.32;;;;;;;;;;4880126;29;20486;-63
2022/06/10 05:01:16;;;;;;;16.20;9.50;;;;;;;;;;4878263;29;20474;-62
2022/06/10 05:03:42;;;;;;;17.10;9.05;;;;;;;;;;4880005;29;20449;-63
2022/06/10 05:06:08;;;;;;;13.73;8.73;;;;;;;;;;4876719;29;20048;-63
2022/06/10 05:08:33;;;;;;;14.70;8.52;;;;;;;;;;4870866;29;20052;-63
2022/06/10 05:10:59;;;;;;;15.15;8.38;;;;;;;;;;4874809;29;20035;-63
2022/06/10 05:13:24;;;;;;;15.25;8.10;;;;;;;;;;4879857;29;20057;-64
2022/06/10 05:15:50;;;;;;;13.77;7.28;;;;;;;;;;4878488;29;20466;-69
2022/06/10 05:18:20;;;;;;;20.35;7.15;;;;;;;;;;4881670;29;20108;-72
2022/06/10 05:20:46;;;;;;;15.93;7.63;;;;;;;;;;4880068;29;20462;-74
2022/06/10 05:23:15;;;;;;;15.48;7.03;;;;;;;;;;4877587;29;20113;-73
2022/06/10 05:25:41;;;;;;;16.05;6.93;;;;;;;;;;4861568;29;20056;-72
2022/06/10 05:28:08;;;;;;;12.38;6.53;;;;;;;;;;4877686;29;20069;-72
2022/06/10 05:30:34;;;;;;;13.00;6.10;;;;;;;;;;4876791;29;20096;-72
2022/06/10 05:33:01;;;;;;;11.40;5.70;;;;;;;;;;4869187;29;20037;-72
2022/06/10 05:35:29;;;;;;;11.15;5.78;;;;;;;;;;4878885;29;20124;-73
2022/06/10 05:37:54;;;;;;;13.35;5.55;;;;;;;;;;4876004;29;20045;-71
2022/06/10 05:40:23;;;;;;;10.30;5.38;;;;;;;;;;4874700;29;20089;-72
2022/06/10 05:42:49;;;;;;;13.40;5.45;;;;;;;;;;4878799;29;20483;-71
2022/06/10 05:45:17;;;;;;;12.35;5.50;;;;;;;;;;4877487;29;20136;-73
2022/06/10 05:47:44;;;;;;;10.40;5.03;;;;;;;;;;4878434;29;20092;-72
2022/06/10 05:50:18;;;;;;;10.68;4.78;;;;;;;;;;4877579;29;20029;-75
2022/06/10 05:52:43;;;;;;;11.93;4.88;;;;;;;;;;4878917;29;20065;-70
2022/06/10 05:55:10;;;;;;;12.43;4.80;;;;;;;;;;4877599;29;20401;-72
2022/06/10 05:57:37;;;;;;;12.32;4.60;;;;;;;;;;4875739;29;20110;-70
2022/06/10 06:00:06;;;;;;;13.32;4.60;;;;;;;;;;4874591;29;20033;-74
2022/06/10 06:02:32;;;;;;;11.02;4.30;;;;;;;;;;4877523;29;20386;-74
2022/06/10 06:04:58;;;;;;;9.85;4.35;;;;;;;;;;4877839;29;20478;-73
2022/06/10 06:07:27;;;;;;;6.65;3.75;;;;;;;;;;4877529;29;20088;-71
2022/06/10 06:09:53;;;;;;;12.40;3.83;;;;;;;;;;4860760;29;20029;-70
2022/06/10 06:12:19;;;;;;;9.90;4.10;;;;;;;;;;4878328;29;20037;-68
2022/06/10 06:14:45;;;;;;;11.00;4.53;;;;;;;;;;4861833;29;20382;-68
2022/06/10 06:17:12;;;;;;;9.13;4.05;;;;;;;;;;4880179;29;20465;-70
2022/06/10 06:19:37;;;;;;;10.27;4.20;;;;;;;;;;4876658;29;20109;-70
2022/06/10 06:22:03;;;;;;;10.27;3.60;;;;;;;;;;4875982;29;20371;-70
2022/06/10 06:24:29;;;;;;;9.70;3.75;;;;;;;;;;4878127;29;20546;-71
2022/06/10 06:26:54;;;;;;;7.25;3.63;;;;;;;;;;4876853;29;20137;-70
2022/06/10 06:29:24;;;;;;;16.85;4.20;;;;;;;;;;4876700;29;20470;-71
2022/06/10 06:31:51;;;;;;;10.88;3.80;;;;;;;;;;4875787;29;20052;-72
2022/06/10 06:34:17;;;;;;;12.40;4.20;;;;;;;;;;4876773;29;20037;-70
2022/06/10 06:36:45;;;;;;;10.77;4.35;;;;;;;;;;4877104;29;20033;-71
2022/06/10 06:39:15;;;;;;;10.57;3.67;;;;;;;;;;4877113;29;20072;-72
2022/06/10 06:41:40;;;;;;;10.83;3.80;;;;;;;;;;4869426;29;20037;-71
2022/06/10 06:44:07;;;;;;;10.40;3.58;;;;;;;;;;4873539;29;20641;-71
2022/06/10 06:46:38;;;;;;;12.48;4.03;;;;;;;;;;4876574;29;20033;-73
2022/06/10 06:49:04;;;;;;;;;;;;;;;;;;4874773;29;20033;-70
2022/06/10 06:51:30;;;;;;;6.30;2.92;;;;;;;;;;4877985;29;19971;-70
2022/06/10 06:53:55;;;;;;;11.07;3.58;;;;;;;;;;4875701;29;20033;-71
2022/06/10 06:56:21;;;;;;;13.88;3.40;;;;;;;;;;4877855;29;20035;-71
2022/06/10 06:58:46;;;;;;;10.70;3.35;;;;;;;;;;4875974;29;20037;-74
2022/06/10 07:01:11;;;;;;;15.55;3.75;;;;;;;;;;4877293;29;20025;-70
2022/06/10 07:03:37;;;;;;;10.80;3.25;;;;;;;;;;4874933;29;20546;-72
2022/06/10 07:06:03;;;;;;;9.40;2.90;;;;;;;;;;4875568;29;20056;-71
2022/06/10 07:08:31;;;;;;;13.48;3.30;;;;;;;;;;4876243;29;20041;-71
2022/06/10 07:11:01;;;;;;;8.43;3.20;;;;;;;;;;4875338;29;20534;-69
2022/06/10 07:13:27;;;;;;;8.73;3.17;;;;;;;;;;4870717;29;20184;-69
2022/06/10 07:15:57;;;;;;;11.40;3.00;;;;;;;;;;4876335;29;20533;-71
2022/06/10 07:18:23;;;;;;;13.10;2.97;;;;;;;;;;4875933;29;20428;-72
2022/06/10 07:20:48;;;;;;;10.13;3.20;;;;;;;;;;4875740;29;20479;-73
2022/06/10 07:23:14;;;;;;;10.02;2.90;;;;;;;;;;4869555;29;20478;-70
2022/06/10 07:25:40;;;;;;;9.27;3.05;;;;;;;;;;4859121;29;20049;-71
2022/06/10 07:28:07;;;;;;;13.00;3.22;;;;;;;;;;4863129;29;20037;-71
2022/06/10 07:30:33;;;;;;;6.60;2.42;;;;;;;;;;4876935;29;20124;-68
2022/06/10 07:32:59;;;;;;;9.85;2.80;;;;;;;;;;4876145;29;20474;-69
2022/06/10 07:35:26;;;;;;;8.60;2.88;;;;;;;;;;4877748;29;20052;-74
2022/06/10 07:37:52;;;;;;;9.73;2.72;;;;;;;;;;4872983;29;20103;-70
2022/06/10 07:43:11;;;;;;;9.63;2.72;;;;;;;;;;4876052;29;20084;-72
2022/06/10 07:45:37;;;;;;;6.30;2.35;;;;;;;;;;4883928;29;20443;-69
2022/06/10 07:48:03;;;;;;;8.88;2.58;;;;;;;;;;4876094;29;20085;-65
2022/06/10 07:50:29;;;;;;;8.02;2.78;;;;;;;;;;4875488;29;20513;-69
2022/06/10 07:52:54;;;;;;;10.60;2.50;;;;;;;;;;4872970;29;20060;-67
2022/06/10 07:55:19;;;;;;;7.53;2.67;;;;;;;;;;4875613;29;20478;-68
2022/06/10 07:57:45;;;;;;;8.38;2.60;;;;;;;;;;4869486;29;20049;-66
2022/06/10 08:00:12;;;;;;;6.60;2.50;;;;;;;;;;4873916;29;20072;-68
2022/06/10 08:02:39;;;;;;;7.35;2.30;;;;;;;;;;4876373;29;20044;-68
2022/06/10 08:05:08;;;;;;;7.55;2.45;;;;;;;;;;4876755;29;20478;-67
2022/06/10 08:07:35;;;;;;;9.45;2.58;;;;;;;;;;4876540;29;20149;-68
2022/06/10 08:10:00;;;;;;;8.88;2.63;;;;;;;;;;4877119;29;20470;-67
2022/06/10 08:12:26;;;;;;;11.75;3.00;;;;;;;;;;4863689;29;20036;-68
2022/06/10 08:14:51;;;;;;;10.85;2.55;;;;;;;;;;4878167;29;20032;-67
2022/06/10 08:17:17;;;;;;;8.52;2.75;;;;;;;;;;4879465;29;20043;-68
2022/06/10 08:19:42;;;;;;;9.68;2.47;;;;;;;;;;4880017;29;20045;-69
2022/06/10 08:24:53;;;;;;;11.20;2.72;;;;;;;;;;4878792;29;20044;-68
2022/06/10 08:27:18;;;;;;;9.27;2.40;;;;;;;;;;4879460;29;20025;-69
2022/06/10 08:29:44;;;;;;;5.47;2.15;;;;;;;;;;4879573;29;20538;-68
2022/06/10 08:32:09;;;;;;;6.07;2.22;;;;;;;;;;4875764;29;20044;-63
2022/06/10 08:34:36;;;;;;;6.35;2.42;;;;;;;;;;4877696;29;20056;-69
2022/06/10 08:37:03;;;;;;;5.60;2.17;;;;;;;;;;4879582;29;20029;-67
2022/06/10 08:39:29;;;;;;;8.07;2.42;;;;;;;;;;4878785;29;20041;-67
2022/06/10 08:42:02;;;;;;;6.10;2.00;;;;;;;;;;4877303;29;20126;-65
2022/06/10 08:44:35;;;;;;;5.72;2.10;;;;;;;;;;4879570;29;20041;-65
2022/06/10 08:47:28;;;;;;;9.10;2.00;;;;;;;;;;4879457;29;20044;-65
2022/06/10 08:49:59;;;;;;;4.20;1.90;;;;;;;;;;4878296;29;20064;-65
2022/06/10 08:52:24;;;;;;;6.72;2.10;;;;;;;;;;4877905;29;20471;-65
2022/06/10 08:55:14;;;;;;;7.57;2.30;;;;;;;;;;4878702;29;20041;-68
2022/06/10 08:57:43;;;;;;;6.77;1.60;;;;;;;;;;4869031;29;20045;-68
2022/06/10 09:00:20;;;;;;;6.15;1.80;;;;;;;;;;4867473;29;20497;-67
2022/06/10 09:02:49;;;;;;;8.98;2.35;;;;;;;;;;4879787;29;20032;-67
2022/06/10 09:05:21;;;;;;;7.28;1.90;;;;;;;;;;4877212;29;20036;-67
2022/06/10 09:07:50;;;;;;;6.22;2.30;;;;;;;;;;4879579;29;20363;-66
2022/06/10 09:10:23;;;;;;;5.72;2.38;;;;;;;;;;4878479;29;20059;-67
2022/06/10 09:13:12;;;;;;;6.22;1.88;;;;;;;;;;4879967;29;20033;-66
2022/06/10 09:16:16;;;;;;;10.82;2.40;;;;;;;;;;4878841;29;20128;-67
2022/06/10 09:19:07;;;;;;;6.28;2.42;;;;;;;;;;4876271;29;20557;-67
2022/06/10 09:21:40;;;;;;;;;;;;;;;;;;4878414;29;20032;-66
2022/06/10 09:24:28;;;;;;;7.50;2.40;;;;;;;;;;4877784;29;19973;-65
2022/06/10 09:27:26;;;;;;;6.22;2.45;;;;;;;;;;4879031;29;20064;-64
2022/06/10 09:29:51;;;;;;;9.70;2.33;;;;;;;;;;4860549;29;20049;-64
2022/06/10 09:32:30;;;;;;;6.47;2.17;;;;;;;;;;4859825;29;20037;-65
2022/06/10 09:35:14;;;;;;;6.35;2.70;;;;;;;;;;4879352;29;20107;-66
2022/06/10 09:37:39;;;;;;;9.35;2.63;;;;;;;;;;4877638;29;20040;-65
2022/06/10 09:40:36;;;;;;;8.98;2.30;;;;;;;;;;4877115;29;20045;-69
2022/06/10 09:43:30;;;;;;;6.45;2.00;;;;;;;;;;4877264;29;20029;-67
2022/06/10 09:46:53;;;;;;;5.95;2.30;;;;;;;;;;4879167;29;20116;-69
2022/06/10 09:49:26;;;;;;;7.40;2.10;;;;;;;;;;4799193;29;20138;-64
2022/06/10 09:52:10;;;;;;;10.30;2.60;;;;;;;;;;4803179;29;20039;-64
2022/06/10 09:55:03;;;;;;;10.27;2.63;;;;;;;;;;4802760;29;20080;-65
2022/06/10 09:57:53;;;;;;;7.30;2.53;;;;;;;;;;4802302;29;20042;-66
2022/06/10 10:00:24;;;;;;;8.23;2.38;;;;;;;;;;4801674;29;20508;-65
2022/06/10 10:03:01;;;;;;;8.82;2.30;;;;;;;;;;4801961;29;20098;-66
2022/06/10 10:06:03;;;;;;;6.85;2.10;;;;;;;;;;4801929;29;20528;-67
2022/06/10 10:08:47;;;;;;;6.25;2.13;;;;;;;;;;4801820;29;20038;-66
2022/06/10 10:11:37;;;;;;;4.65;1.85;;;;;;;;;;4800878;29;20134;-65
2022/06/10 10:14:23;;;;;;;4.65;1.63;;;;;;;;;;4794885;29;20041;-64
2022/06/10 10:17:01;;;;;;;4.65;1.48;;;;;;;;;;4800213;29;20073;-65
2022/06/10 10:19:35;;;;;;;5.00;1.50;;;;;;;;;;4824954;29;20053;-64
2022/06/10 10:22:34;;;;;;;6.38;1.40;;;;;;;;;;4876912;29;20040;-65
2022/06/10 10:25:00;;;;;;;5.90;1.60;;;;;;;;;;4870441;29;20071;-65
2022/06/10 10:27:32;;;;;;;5.10;1.70;;;;;;;;;;4876145;29;20076;-65
2022/06/10 10:30:18;;;;;;;4.22;1.60;;;;;;;;;;4878014;29;20036;-64
2022/06/10 10:32:51;;;;;;;5.32;1.58;;;;;;;;;;4874052;29;20474;-67
2022/06/10 10:35:23;;;;;;;3.42;1.30;;;;;;;;;;4857592;29;20072;-63
2022/06/10 10:37:58;;;;;;;4.07;1.35;;;;;;;;;;4873884;29;20064;-67
2022/06/10 10:40:41;;;;;;;4.25;1.50;;;;;;;;;;4876548;29;20037;-64
2022/06/10 10:43:11;;;;;;;4.45;1.58;;;;;;;;;;4877389;29;20089;-67
2022/06/10 10:45:38;;;;;;;4.47;1.35;;;;;;;;;;4876813;29;20101;-67
2022/06/10 10:48:16;;;;;;;3.70;1.42;;;;;;;;;;4876920;29;20057;-67
2022/06/10 10:50:52;;;;;;;5.55;1.60;;;;;;;;;;4876896;29;20069;-66
2022/06/10 10:53:54;;;;;;;6.38;1.27;;;;;;;;;;4876145;29;20036;-66
2022/06/10 10:56:29;;;;;;;4.90;1.33;;;;;;;;;;4845749;29;20049;-68
2022/06/10 10:58:56;;;;;;;4.60;1.50;;;;;;;;;;4878365;29;20075;-66
2022/06/10 11:01:46;;;;;;;6.47;1.42;;;;;;;;;;4876289;29;20119;-67
2022/06/10 11:04:16;;;;;;;5.25;1.40;;;;;;;;;;4875110;29;20447;-67
2022/06/10 11:06:42;;;;;;;4.47;1.40;;;;;;;;;;4875814;29;20040;-69
2022/06/10 11:09:20;;;;;;;4.47;1.17;;;;;;;;;;4877200;29;20040;-68
2022/06/10 11:11:46;;;;;;;4.00;1.35;;;;;;;;;;4877719;29;20048;-68
2022/06/10 11:14:37;;;;;;;4.50;1.50;;;;;;;;;;4875098;29;20033;-68
2022/06/10 11:17:02;;;;;;;;;;;;;;;;;;4872845;29;20052;-65
2022/06/10 11:19:30;;;;;;;4.07;1.50;;;;;;;;;;4874301;29;20565;-66
2022/06/10 11:22:02;;;;;;;4.30;1.30;;;;;;;;;;4868717;29;20062;-66
2022/06/10 11:24:43;;;;;;;4.30;1.50;;;;;;;;;;4875455;29;20033;-66
2022/06/10 11:27:23;;;;;;;5.82;1.70;;;;;;;;;;4876861;29;20057;-67
2022/06/10 11:29:57;;;;;;;3.50;1.60;;;;;;;;;;4876114;29;20037;-66
2022/06/10 11:32:26;;;;;;;4.47;1.50;;;;;;;;;;4875241;29;20037;-64
2022/06/10 11:35:17;;;;;;;6.35;1.70;;;;;;;;;;4876151;29;20117;-66
2022/06/10 11:37:48;;;;;;;7.00;1.70;;;;;;;;;;4870846;29;20160;-67
2022/06/10 11:40:20;;;;;;;5.18;1.70;;;;;;;;;;4876186;29;20438;-68
2022/06/10 11:42:57;;;;;;;5.60;1.90;;;;;;;;;;4859759;29;20060;-68
2022/06/10 11:45:28;;;;;;;6.43;1.67;;;;;;;;;;4880662;29;20394;-66
2022/06/10 11:48:05;;;;;;;;;;;;;;;;;;4880465;29;20040;-70
2022/06/10 11:50:44;;;;;;;4.00;1.67;;;;;;;;;;4880156;29;19920;-66
2022/06/10 11:53:18;;;;;;;4.38;1.75;;;;;;;;;;4879183;29;20068;-68
2022/06/10 11:55:50;;;;;;;5.45;1.90;;;;;;;;;;4879885;29;20037;-68
2022/06/10 12:01:11;;;;;;;4.22;1.77;;;;;;;;;;4878850;29;20518;-68
2022/06/10 12:03:47;;;;;;;5.03;1.60;;;;;;;;;;4874897;29;20120;-69
2022/06/10 12:06:27;;;;;;;4.55;1.75;;;;;;;;;;4880043;29;20036;-67
2022/06/10 12:08:58;;;;;;;5.47;1.80;;;;;;;;;;4879878;29;20033;-69
2022/06/10 12:11:35;;;;;;;5.97;2.17;;;;;;;;;;4877495;29;20052;-68
2022/06/10 12:14:41;;;;;;;5.75;1.83;;;;;;;;;;4880115;29;20044;-68
2022/06/10 12:17:09;;;;;;;6.18;1.95;;;;;;;;;;4879239;29;20029;-68
2022/06/10 12:19:40;;;;;;;4.95;2.05;;;;;;;;;;4879900;29;20124;-66
2022/06/10 12:22:08;;;;;;;3.45;1.80;;;;;;;;;;4879379;29;20089;-70
2022/06/10 12:24:34;;;;;;;5.35;1.98;;;;;;;;;;4861449;29;20037;-67
2022/06/10 12:27:21;;;;;;;4.57;1.92;;;;;;;;;;4879891;29;20076;-69
2022/06/10 12:30:12;;;;;;;7.55;2.10;;;;;;;;;;4878436;29;20103;-67
2022/06/10 12:33:04;;;;;;;4.32;1.83;;;;;;;;;;4880339;29;20477;-67
2022/06/10 12:35:34;;;;;;;6.38;2.00;;;;;;;;;;4876120;29;20128;-67
2022/06/10 12:38:25;;;;;;;7.88;1.95;;;;;;;;;;4880335;29;20490;-67
2022/06/10 12:41:03;;;;;;;4.60;1.50;;;;;;;;;;4873949;29;20047;-69
2022/06/10 12:43:32;;;;;;;4.93;1.80;;;;;;;;;;4877512;29;20047;-67
2022/06/10 12:46:03;;;;;;;5.75;1.80;;;;;;;;;;4880556;29;20043;-69
2022/06/10 12:48:33;;;;;;;8.75;1.88;;;;;;;;;;4877576;29;20038;-68
2022/06/10 12:51:12;;;;;;;5.72;1.90;;;;;;;;;;4880409;29;20033;-69
2022/06/10 12:53:55;;;;;;;4.28;1.75;;;;;;;;;;4879457;29;20045;-68
2022/06/10 12:56:25;;;;;;;5.95;1.95;;;;;;;;;;4877741;29;20041;-66
2022/06/10 12:59:06;;;;;;;4.00;1.65;;;;;;;;;;4878917;29;20144;-67
2022/06/10 13:01:31;;;;;;;5.53;2.03;;;;;;;;;;4877120;29;20097;-67
2022/06/10 13:04:10;;;;;;;6.28;2.17;;;;;;;;;;4879780;29;20037;-68
2022/06/10 13:06:44;;;;;;;6.30;2.10;;;;;;;;;;4878243;29;20045;-66
2022/06/10 13:09:10;;;;;;;6.85;2.17;;;;;;;;;;4877245;29;20037;-65
2022/06/10 13:11:46;;;;;;;7.85;2.50;;;;;;;;;;4877925;29;20128;-64
2022/06/10 13:14:16;;;;;;;5.72;2.08;;;;;;;;;;4878619;29;20061;-64
2022/06/10 13:16:59;;;;;;;6.10;2.10;;;;;;;;;;4878769;29;20029;-64
2022/06/10 13:19:31;;;;;;;14.40;2.53;;;;;;;;;;4878058;29;20557;-64
2022/06/10 13:22:19;;;;;;;5.00;1.90;;;;;;;;;;4876571;29;20166;-64
2022/06/10 13:24:54;;;;;;;7.95;2.00;;;;;;;;;;4877584;29;20085;-64
2022/06/10 13:27:31;;;;;;;5.45;1.90;;;;;;;;;;4878736;29;20539;-65
2022/06/10 13:30:13;;;;;;;6.65;2.10;;;;;;;;;;4875069;29;20049;-64
2022/06/10 13:32:43;;;;;;;4.90;1.90;;;;;;;;;;4876318;29;20045;-65
2022/06/10 13:35:16;;;;;;;;;;;;;;;;;;4877334;29;20100;-64
2022/06/10 13:37:42;;;;;;;8.30;2.10;;;;;;;;;;4876627;29;19922;-65
2022/06/10 13:40:22;;;;;;;7.45;2.00;;;;;;;;;;4878239;29;20474;-65
2022/06/10 13:42:53;;;;;;;8.52;2.17;;;;;;;;;;4878292;29;20059;-64
2022/06/10 13:45:28;;;;;;;;;;;;;;;;;;4878803;29;20466;-64
2022/06/10 13:48:02;;;;;;;8.68;2.20;;;;;;;;;;4876667;29;19928;-64
2022/06/10 13:53:07;;;;;;;8.65;2.20;;;;;;;;;;4871812;29;20045;-64
2022/06/10 13:55:39;;;;;;;8.93;2.42;;;;;;;;;;4859768;29;20089;-64
2022/06/10 13:58:11;;;;;;;9.13;2.10;;;;;;;;;;4870237;29;20097;-64
2022/06/10 14:00:41;;;;;;;8.52;2.17;;;;;;;;;;4877604;29;20262;-64
2022/06/10 14:03:33;;;;;;;8.05;2.47;;;;;;;;;;4877655;29;20493;-64
2022/06/10 14:06:05;;;;;;;7.15;2.30;;;;;;;;;;4878949;29;20040;-64
2022/06/10 14:08:34;;;;;;;5.57;2.20;;;;;;;;;;4875609;29;20162;-64
2022/06/10 14:11:15;;;;;;;6.30;2.10;;;;;;;;;;4878711;29;20616;-64
2022/06/10 14:13:49;;;;;;;7.57;2.10;;;;;;;;;;4876594;29;20048;-64
2022/06/10 14:16:15;;;;;;;6.30;1.90;;;;;;;;;;4877583;29;20037;-64
2022/06/10 14:18:44;;;;;;;5.43;1.88;;;;;;;;;;4876847;29;20465;-64
2022/06/10 14:21:12;;;;;;;5.25;1.85;;;;;;;;;;4859996;29;20038;-64
2022/06/10 14:24:01;;;;;;;6.95;2.10;;;;;;;;;;4863692;29;20067;-64
2022/06/10 14:26:28;;;;;;;7.05;2.25;;;;;;;;;;4876037;29;20045;-64
2022/06/10 14:29:27;;;;;;;6.53;2.15;;;;;;;;;;4877431;29;20029;-64
2022/06/10 14:32:02;;;;;;;6.68;1.95;;;;;;;;;;4876528;29;20040;-64
2022/06/10 14:34:28;;;;;;;7.43;2.00;;;;;;;;;;4875109;29;20506;-65
2022/06/10 14:37:02;;;;;;;5.63;1.88;;;;;;;;;;4878258;29;20478;-64
2022/06/10 14:39:30;;;;;;;5.65;2.00;;;;;;;;;;4859820;29;20055;-64
2022/06/10 14:42:22;;;;;;;9.07;2.15;;;;;;;;;;4877628;29;20536;-63
2022/06/10 14:44:55;;;;;;;7.70;2.20;;;;;;;;;;4877386;29;20418;-65
2022/06/10 14:47:30;;;;;;;4.60;2.00;;;;;;;;;;4875570;29;20112;-64
2022/06/10 14:49:58;;;;;;;6.15;1.98;;;;;;;;;;4876826;29;20678;-63
2022/06/10 14:52:35;;;;;;;4.90;1.95;;;;;;;;;;4876995;29;20120;-63
2022/06/10 14:55:02;;;;;;;6.10;2.20;;;;;;;;;;4877531;29;20504;-64
2022/06/10 14:57:29;;;;;;;5.97;1.90;;;;;;;;;;4877148;29;20394;-64
2022/06/10 14:59:55;;;;;;;7.88;2.00;;;;;;;;;;4874451;29;20040;-64
2022/06/10 15:02:21;;;;;;;5.72;2.05;;;;;;;;;;4877291;29;20033;-69
2022/06/10 15:07:34;;;;;;;6.85;2.17;;;;;;;;;;4863103;29;20052;-65
2022/06/10 15:10:01;;;;;;;6.22;2.08;;;;;;;;;;4853901;29;20112;-65
2022/06/10 15:12:29;;;;;;;5.45;2.00;;;;;;;;;;4875652;29;20047;-64
2022/06/10 15:14:56;;;;;;;4.80;1.92;;;;;;;;;;4875665;29;20040;-64
2022/06/10 15:17:28;;;;;;;9.65;2.05;;;;;;;;;;4875808;29;20132;-63
2022/06/10 15:19:54;;;;;;;5.55;1.98;;;;;;;;;;4862606;29;20472;-63
2022/06/10 15:22:36;;;;;;;6.82;2.17;;;;;;;;;;4864849;29;20121;-63
2022/06/10 15:25:11;;;;;;;5.95;2.00;;;;;;;;;;4880649;29;20037;-62
2022/06/10 15:27:37;;;;;;;6.18;1.77;;;;;;;;;;4880842;29;20047;-62
2022/06/10 15:30:02;;;;;;;5.82;2.28;;;;;;;;;;4880370;29;20029;-63